createdAt,value
2022-11-28T00:01:21.867Z,11.87
2022-11-28T00:03:48.652Z,11.63
2022-11-28T00:06:15.541Z,11.10
2022-11-28T00:08:42.215Z,12.50
2022-11-28T00:11:11.134Z,12.87
2022-11-28T00:13:37.992Z,13.13
2022-11-28T00:16:06.829Z,12.00
2022-11-28T00:18:33.924Z,14.00
2022-11-28T00:21:01.762Z,11.67
2022-11-28T00:23:30.963Z,13.53
2022-11-28T00:26:27.888Z,12.67
2022-11-28T00:28:55.900Z,11.90
2022-11-28T00:31:25.305Z,11.10
2022-11-28T00:33:51.942Z,10.83
2022-11-28T00:36:19.445Z,12.20
2022-11-28T00:38:46.177Z,10.43
2022-11-28T00:41:18.018Z,12.60
2022-11-28T00:43:48.276Z,12.07
2022-11-28T00:46:15.521Z,9.23
2022-11-28T00:48:42.398Z,12.47
2022-11-28T00:51:10.190Z,10.53
2022-11-28T00:53:37.521Z,11.53
2022-11-28T00:56:05.806Z,9.00
2022-11-28T00:58:36.184Z,12.17
2022-11-28T01:01:30.497Z,12.83
2022-11-28T01:03:58.712Z,11.73
2022-11-28T01:06:31.226Z,10.63
2022-11-28T01:09:00.001Z,9.93
2022-11-28T01:11:27.008Z,10.63
2022-11-28T01:13:55.314Z,12.57
2022-11-28T01:16:22.103Z,13.53
2022-11-28T01:18:48.576Z,11.23
2022-11-28T01:21:15.178Z,10.33
2022-11-28T01:23:41.665Z,10.87
2022-11-28T01:26:09.534Z,10.57
2022-11-28T01:28:36.348Z,8.47
2022-11-28T01:31:07.740Z,9.87
2022-11-28T01:33:34.366Z,9.70
2022-11-28T01:36:00.936Z,11.37
2022-11-28T01:38:28.016Z,10.60
2022-11-28T01:40:55.305Z,10.03
2022-11-28T01:43:22.724Z,9.20
2022-11-28T01:45:49.213Z,11.17
2022-11-28T01:48:18.897Z,8.33
2022-11-28T01:50:46.214Z,7.23
2022-11-28T01:53:13.056Z,8.83
2022-11-28T01:55:49.246Z,12.10
2022-11-28T01:58:15.849Z,7.73
2022-11-28T02:00:42.532Z,10.60
2022-11-28T02:03:13.183Z,8.77
2022-11-28T02:05:40.074Z,7.37
2022-11-28T02:08:08.409Z,7.20
2022-11-28T02:10:44.705Z,9.00
2022-11-28T02:13:41.117Z,11.33
2022-11-28T02:16:15.643Z,11.13
2022-11-28T02:19:03.860Z,8.20
2022-11-28T02:21:55.931Z,10.83
2022-11-28T02:24:38.559Z,9.60
2022-11-28T02:27:20.118Z,9.67
2022-11-28T02:30:11.802Z,7.80
2022-11-28T02:32:38.227Z,8.30
2022-11-28T02:35:10.150Z,10.43
2022-11-28T02:37:45.369Z,9.00
2022-11-28T02:40:47.395Z,9.87
2022-11-28T02:43:21.367Z,10.63
2022-11-28T02:46:11.664Z,8.30
2022-11-28T02:48:55.957Z,11.80
2022-11-28T02:51:47.886Z,8.77
2022-11-28T02:54:16.110Z,9.03
2022-11-28T02:56:52.287Z,8.40
2022-11-28T02:59:33.973Z,10.83
2022-11-28T03:02:01.670Z,8.53
2022-11-28T03:04:31.355Z,8.13
2022-11-28T03:07:17.792Z,10.77
2022-11-28T03:09:57.121Z,8.53
2022-11-28T03:12:42.275Z,10.37
2022-11-28T03:15:09.854Z,9.47
2022-11-28T03:17:57.420Z,9.67
2022-11-28T03:20:33.033Z,7.03
2022-11-28T03:23:10.026Z,8.37
2022-11-28T03:25:43.984Z,11.07
2022-11-28T03:28:23.365Z,8.07
2022-11-28T03:30:58.112Z,7.63
2022-11-28T03:33:25.933Z,8.97
2022-11-28T03:35:58.692Z,8.77
2022-11-28T03:38:29.082Z,7.90
2022-11-28T03:40:57.570Z,10.23
2022-11-28T03:43:27.804Z,8.80
2022-11-28T03:45:57.315Z,9.57
2022-11-28T03:48:36.029Z,8.23
2022-11-28T03:51:09.533Z,9.77
2022-11-28T03:53:56.788Z,8.97
2022-11-28T03:56:38.185Z,11.13
2022-11-28T03:59:09.843Z,8.23
2022-11-28T04:02:17.316Z,11.23
2022-11-28T04:05:01.519Z,8.63
2022-11-28T04:07:45.350Z,11.00
2022-11-28T04:10:21.912Z,7.93
2022-11-28T04:13:01.911Z,7.33
2022-11-28T04:15:38.800Z,9.00
2022-11-28T04:18:17.423Z,9.77
2022-11-28T04:21:00.150Z,7.83
2022-11-28T04:23:27.376Z,9.40
2022-11-28T04:26:14.742Z,7.97
2022-11-28T04:28:41.488Z,9.13
2022-11-28T04:31:08.826Z,8.03
2022-11-28T04:33:38.795Z,7.43
2022-11-28T04:36:06.734Z,7.00
2022-11-28T04:38:33.668Z,7.70
2022-11-28T04:41:08.558Z,10.50
2022-11-28T04:43:45.504Z,9.30
2022-11-28T04:46:19.178Z,9.37
2022-11-28T04:48:45.731Z,7.50
2022-11-28T04:51:20.099Z,9.57
2022-11-28T04:53:50.875Z,8.73
2022-11-28T04:56:21.377Z,7.87
2022-11-28T04:58:49.963Z,9.17
2022-11-28T05:01:22.497Z,7.10
2022-11-28T05:03:49.270Z,10.10
2022-11-28T05:06:24.601Z,10.03
2022-11-28T05:08:51.303Z,7.87
2022-11-28T05:11:17.715Z,7.93
2022-11-28T05:13:44.797Z,8.90
2022-11-28T05:16:12.969Z,8.17
2022-11-28T05:18:39.595Z,8.90
2022-11-28T05:21:09.172Z,8.87
2022-11-28T05:23:43.967Z,7.33
2022-11-28T05:26:17.782Z,7.47
2022-11-28T05:28:49.626Z,9.23
2022-11-28T05:31:17.145Z,9.07
2022-11-28T05:33:43.647Z,7.77
2022-11-28T05:36:13.460Z,10.97
2022-11-28T05:38:40.756Z,9.23
2022-11-28T05:41:07.524Z,8.73
2022-11-28T05:43:34.326Z,8.00
2022-11-28T05:46:00.848Z,7.97
2022-11-28T05:48:27.382Z,7.77
2022-11-28T05:50:53.911Z,10.77
2022-11-28T05:53:20.499Z,11.40
2022-11-28T05:55:47.558Z,8.37
2022-11-28T05:58:14.008Z,10.07
2022-11-28T06:00:40.509Z,7.93
2022-11-28T06:03:07.175Z,8.63
2022-11-28T06:05:47.468Z,8.00
2022-11-28T06:08:14.122Z,11.20
2022-11-28T06:10:40.788Z,9.13
2022-11-28T06:13:07.457Z,7.93
2022-11-28T06:15:37.989Z,9.73
2022-11-28T06:18:05.113Z,10.80
2022-11-28T06:20:31.653Z,10.63
2022-11-28T06:22:58.086Z,8.33
2022-11-28T06:25:24.695Z,10.70
2022-11-28T06:27:51.348Z,9.87
2022-11-28T06:30:17.909Z,9.03
2022-11-28T06:32:44.346Z,8.30
2022-11-28T06:35:10.888Z,8.30
2022-11-28T06:37:37.508Z,8.43
2022-11-28T06:40:05.117Z,10.40
2022-11-28T06:42:31.595Z,9.37
2022-11-28T06:44:58.062Z,9.03
2022-11-28T06:47:24.538Z,13.20
2022-11-28T06:49:50.991Z,11.83
2022-11-28T06:52:17.520Z,11.30
2022-11-28T06:54:44.650Z,10.97
2022-11-28T06:57:11.405Z,8.27
2022-11-28T06:59:37.897Z,10.87
2022-11-28T07:02:07.719Z,9.83
2022-11-28T07:04:34.566Z,9.37
2022-11-28T07:07:01.024Z,8.90
2022-11-28T07:09:27.461Z,10.53
2022-11-28T07:11:53.923Z,10.60
2022-11-28T07:14:20.430Z,9.67
2022-11-28T07:16:49.178Z,10.40
2022-11-28T07:19:16.380Z,10.60
2022-11-28T07:21:42.873Z,10.43
2022-11-28T07:24:09.470Z,11.17
2022-11-28T07:26:38.090Z,9.80
2022-11-28T07:29:06.963Z,10.80
2022-11-28T07:31:33.947Z,11.70
2022-11-28T07:34:03.466Z,11.00
2022-11-28T07:36:30.576Z,10.20
2022-11-28T07:39:00.125Z,10.67
2022-11-28T07:41:27.692Z,11.13
2022-11-28T07:43:56.679Z,10.87
2022-11-28T07:46:24.342Z,12.83
2022-11-28T07:48:50.925Z,11.27
2022-11-28T07:51:22.641Z,11.20
2022-11-28T07:53:49.300Z,11.73
2022-11-28T07:56:18.258Z,13.20
2022-11-28T07:58:45.791Z,12.80
2022-11-28T08:01:17.934Z,13.37
2022-11-28T08:03:45.103Z,11.53
2022-11-28T08:06:12.689Z,10.93
2022-11-28T08:08:39.187Z,11.30
2022-11-28T08:11:07.931Z,11.57
2022-11-28T08:13:36.014Z,12.30
2022-11-28T08:16:12.067Z,12.90
2022-11-28T08:18:38.705Z,11.90
2022-11-28T08:21:10.210Z,17.03
2022-11-28T08:23:37.216Z,12.30
2022-11-28T08:26:05.963Z,14.77
2022-11-28T08:28:32.503Z,14.37
2022-11-28T08:31:01.464Z,12.30
2022-11-28T08:33:28.242Z,12.03
2022-11-28T08:35:54.700Z,13.77
2022-11-28T08:38:21.172Z,13.20
2022-11-28T08:40:47.646Z,14.00
2022-11-28T08:43:14.663Z,14.43
2022-11-28T08:45:41.254Z,14.50
2022-11-28T08:48:07.796Z,12.93
2022-11-28T08:50:34.241Z,12.67
2022-11-28T08:53:07.516Z,13.47
2022-11-28T08:55:39.133Z,15.97
2022-11-28T08:58:08.283Z,14.60
2022-11-28T09:00:34.779Z,11.43
2022-11-28T09:03:01.249Z,13.27
2022-11-28T09:05:28.960Z,13.27
2022-11-28T09:07:56.155Z,13.70
2022-11-28T09:10:23.530Z,12.83
2022-11-28T09:12:50.001Z,12.17
2022-11-28T09:15:16.723Z,12.90
2022-11-28T09:17:43.221Z,13.40
2022-11-28T09:20:10.109Z,12.20
2022-11-28T09:22:36.554Z,12.80
2022-11-28T09:25:03.221Z,11.07
2022-11-28T09:27:29.704Z,11.70
2022-11-28T09:29:56.174Z,12.47
2022-11-28T09:32:22.703Z,14.73
2022-11-28T09:34:51.121Z,12.13
2022-11-28T09:37:17.631Z,11.10
2022-11-28T09:40:11.023Z,13.17
2022-11-28T09:42:31.020Z,11.67
2022-11-28T09:45:03.656Z,12.33
2022-11-28T09:47:32.230Z,10.80
2022-11-28T09:50:07.474Z,13.83
2022-11-28T09:52:40.504Z,11.67
2022-11-28T09:55:16.671Z,10.37
2022-11-28T09:57:49.050Z,13.30
2022-11-28T10:00:22.774Z,10.97
2022-11-28T10:03:13.664Z,10.70
2022-11-28T10:05:49.067Z,10.20
2022-11-28T10:08:29.303Z,10.37
2022-11-28T10:10:55.717Z,10.50
2022-11-28T10:13:59.795Z,12.37
2022-11-28T10:16:55.936Z,12.80
2022-11-28T10:19:53.981Z,12.73
2022-11-28T10:22:30.919Z,12.23
2022-11-28T10:25:01.858Z,10.00
2022-11-28T10:27:34.217Z,12.30
2022-11-28T10:30:12.481Z,11.40
2022-11-28T10:32:41.491Z,13.07
2022-11-28T10:35:31.488Z,11.43
2022-11-28T10:37:58.057Z,10.93
2022-11-28T10:41:15.674Z,9.10
2022-11-28T10:43:48.831Z,10.83
2022-11-28T10:46:33.740Z,11.00
2022-11-28T10:49:05.936Z,10.60
2022-11-28T10:51:35.475Z,14.07
2022-11-28T10:54:22.779Z,11.43
2022-11-28T10:57:03.611Z,11.83
2022-11-28T10:59:45.433Z,11.13
2022-11-28T11:02:22.555Z,12.97
2022-11-28T11:04:49.319Z,12.33
2022-11-28T11:07:25.058Z,16.93
2022-11-28T11:09:56.297Z,12.80
2022-11-28T11:12:27.552Z,14.63
2022-11-28T11:14:54.107Z,10.93
2022-11-28T11:17:47.158Z,12.33
2022-11-28T11:20:30.644Z,11.00
2022-11-28T11:23:17.394Z,11.53
2022-11-28T11:25:55.202Z,11.07
2022-11-28T11:28:36.868Z,10.60
2022-11-28T11:31:06.055Z,10.90
2022-11-28T11:33:35.222Z,10.80
2022-11-28T11:36:04.840Z,11.30
2022-11-28T11:38:37.719Z,11.30
2022-11-28T11:41:29.637Z,11.03
2022-11-28T11:43:57.237Z,10.93
2022-11-28T11:46:23.822Z,10.80
2022-11-28T11:48:53.548Z,10.33
2022-11-28T11:51:36.633Z,11.47
2022-11-28T11:54:20.934Z,10.20
2022-11-28T11:56:53.560Z,10.17
2022-11-28T12:00:08.625Z,12.27
2022-11-28T12:02:47.655Z,12.07
2022-11-28T12:05:18.672Z,11.83
2022-11-28T12:08:00.330Z,22.03
2022-11-28T12:10:30.159Z,15.73
2022-11-28T12:12:56.907Z,14.00
2022-11-28T12:15:42.360Z,11.67
2022-11-28T12:18:36.504Z,12.83
2022-11-28T12:21:13.174Z,11.83
2022-11-28T12:24:07.283Z,12.23
2022-11-28T12:26:43.993Z,13.57
2022-11-28T12:29:49.130Z,11.93
2022-11-28T12:32:28.573Z,13.77
2022-11-28T12:35:14.055Z,14.17
2022-11-28T12:38:09.715Z,13.80
2022-11-28T12:40:42.895Z,12.97
2022-11-28T12:43:47.126Z,14.23
2022-11-28T12:46:52.413Z,15.20
2022-11-28T12:49:42.702Z,16.57
2022-11-28T12:52:28.253Z,13.37
2022-11-28T12:55:00.570Z,15.03
2022-11-28T12:57:45.627Z,14.07
2022-11-28T13:00:24.511Z,17.30
2022-11-28T13:03:02.881Z,18.37
2022-11-28T13:06:11.687Z,18.80
2022-11-28T13:09:11.808Z,14.07
2022-11-28T13:11:56.960Z,14.03
2022-11-28T13:14:32.423Z,15.70
2022-11-28T13:17:10.626Z,14.53
2022-11-28T13:19:49.260Z,14.70
2022-11-28T13:22:25.918Z,16.00
2022-11-28T13:25:23.223Z,14.53
2022-11-28T13:28:32.947Z,17.07
2022-11-28T13:31:05.192Z,15.30
2022-11-28T13:33:43.436Z,19.00
2022-11-28T13:39:29.508Z,20.93
2022-11-28T13:45:04.336Z,17.90
2022-11-28T13:47:35.031Z,23.30
2022-11-28T13:50:23.085Z,23.10
2022-11-28T13:53:10.327Z,18.07
2022-11-28T13:56:04.942Z,18.93
2022-11-28T13:58:58.728Z,25.37
2022-11-28T14:01:27.336Z,17.93
2022-11-28T14:04:03.100Z,18.43
2022-11-28T14:06:31.881Z,17.60
2022-11-28T14:09:29.918Z,19.43
2022-11-28T14:12:34.231Z,19.93
2022-11-28T14:15:19.057Z,18.23
2022-11-28T14:18:47.751Z,16.67
2022-11-28T14:21:10.020Z,18.33
2022-11-28T14:23:58.103Z,19.10
2022-11-28T14:26:36.286Z,16.00
2022-11-28T14:29:05.245Z,17.40
2022-11-28T14:31:31.745Z,17.13
2022-11-28T14:34:38.654Z,22.80
2022-11-28T14:37:20.609Z,20.80
2022-11-28T14:39:48.559Z,20.00
2022-11-28T14:42:30.574Z,15.70
2022-11-28T14:45:33.133Z,18.20
2022-11-28T14:48:19.606Z,19.30
2022-11-28T14:50:59.028Z,19.70
2022-11-28T14:53:45.847Z,20.63
2022-11-28T14:56:15.401Z,26.67
2022-11-28T14:58:47.870Z,22.03
2022-11-28T15:01:18.807Z,23.63
2022-11-28T15:04:07.507Z,21.50
2022-11-28T15:06:36.295Z,20.67
2022-11-28T15:09:25.687Z,22.47
2022-11-28T15:12:11.580Z,23.77
2022-11-28T15:14:38.338Z,21.83
2022-11-28T15:17:07.156Z,23.27
2022-11-28T15:19:38.198Z,24.67
2022-11-28T15:22:05.055Z,22.93
2022-11-28T15:24:36.630Z,26.47
2022-11-28T15:27:15.152Z,23.27
2022-11-28T15:29:41.613Z,18.43
2022-11-28T15:32:08.084Z,22.73
2022-11-28T15:34:36.304Z,23.30
2022-11-28T15:37:06.377Z,25.43
2022-11-28T15:39:35.880Z,22.80
2022-11-28T15:42:04.148Z,24.93
2022-11-28T15:44:31.420Z,22.87
2022-11-28T15:46:58.163Z,24.03
2022-11-28T15:49:30.413Z,27.87
2022-11-28T15:52:02.497Z,21.53
2022-11-28T15:54:33.902Z,24.40
2022-11-28T15:57:01.070Z,22.43
2022-11-28T15:59:28.288Z,21.93
2022-11-28T16:01:59.484Z,25.37
2022-11-28T16:04:26.173Z,21.53
2022-11-28T16:06:55.640Z,27.13
2022-11-28T16:09:28.642Z,29.17
2022-11-28T16:11:55.558Z,27.97
2022-11-28T16:14:31.386Z,29.10
2022-11-28T16:16:58.602Z,22.70
2022-11-28T16:19:36.427Z,28.23
2022-11-28T16:22:06.377Z,24.63
2022-11-28T16:24:43.287Z,27.33
2022-11-28T16:27:30.210Z,26.20
2022-11-28T16:29:56.914Z,27.27
2022-11-28T16:32:32.027Z,31.07
2022-11-28T16:35:00.815Z,25.77
2022-11-28T16:37:29.113Z,25.80
2022-11-28T16:40:13.945Z,27.77
2022-11-28T16:42:40.584Z,27.23
2022-11-28T16:45:15.312Z,24.70
2022-11-28T16:47:41.858Z,26.87
2022-11-28T16:50:21.921Z,29.70
2022-11-28T16:52:50.599Z,24.00
2022-11-28T16:55:29.225Z,25.07
2022-11-28T16:58:11.517Z,24.87
2022-11-28T17:00:39.684Z,27.10
2022-11-28T17:03:11.604Z,32.07
2022-11-28T17:05:39.311Z,29.87
2022-11-28T17:08:05.787Z,26.47
2022-11-28T17:10:32.474Z,32.70
2022-11-28T17:13:00.015Z,28.20
2022-11-28T17:15:26.442Z,29.43
2022-11-28T17:17:55.730Z,36.00
2022-11-28T17:20:22.160Z,34.70
2022-11-28T17:22:51.077Z,38.37
2022-11-28T17:25:19.869Z,36.67
2022-11-28T17:27:48.237Z,33.03
2022-11-28T17:30:19.147Z,38.10
2022-11-28T17:32:48.030Z,36.33
2022-11-28T17:35:18.713Z,41.83
2022-11-28T17:37:45.246Z,36.43
2022-11-28T17:40:30.333Z,39.30
2022-11-28T17:42:57.565Z,37.93
2022-11-28T17:45:25.047Z,51.50
2022-11-28T17:47:54.390Z,39.07
2022-11-28T17:50:20.864Z,41.80
2022-11-28T17:52:47.331Z,46.77
2022-11-28T17:55:14.488Z,48.40
2022-11-28T17:57:40.978Z,38.40
2022-11-28T18:00:08.836Z,35.83
2022-11-28T18:02:35.389Z,44.13
2022-11-28T18:05:01.890Z,49.40
2022-11-28T18:07:29.944Z,43.37
2022-11-28T18:09:56.798Z,52.40
2022-11-28T18:12:23.438Z,39.67
2022-11-28T18:14:50.137Z,44.57
2022-11-28T18:17:16.654Z,40.83
2022-11-28T18:19:43.296Z,41.10
2022-11-28T18:22:09.867Z,38.93
2022-11-28T18:24:36.528Z,38.30
2022-11-28T18:27:02.956Z,41.10
2022-11-28T18:29:29.398Z,44.43
2022-11-28T18:31:57.622Z,53.80
2022-11-28T18:34:24.203Z,44.97
2022-11-28T18:36:50.623Z,45.90
2022-11-28T18:39:17.152Z,51.77
2022-11-28T18:41:43.923Z,39.83
2022-11-28T18:44:10.935Z,50.63
2022-11-28T18:46:39.182Z,35.17
2022-11-28T18:49:05.662Z,38.77
2022-11-28T18:51:34.090Z,50.27
2022-11-28T18:54:03.608Z,42.57
2022-11-28T18:56:30.282Z,45.90
2022-11-28T18:58:57.560Z,41.93
2022-11-28T19:01:28.456Z,46.90
2022-11-28T19:03:58.612Z,44.53
2022-11-28T19:06:26.409Z,41.23
2022-11-28T19:08:55.699Z,42.37
2022-11-28T19:11:23.801Z,45.83
2022-11-28T19:13:52.748Z,50.37
2022-11-28T19:16:22.021Z,42.27
2022-11-28T19:18:48.952Z,46.60
2022-11-28T19:21:26.683Z,43.00
2022-11-28T19:23:55.158Z,49.10
2022-11-28T19:26:23.406Z,46.63
2022-11-28T19:28:51.275Z,49.63
2022-11-28T19:31:20.558Z,47.77
2022-11-28T19:33:48.348Z,47.70
2022-11-28T19:36:15.230Z,41.23
2022-11-28T19:38:41.854Z,48.60
2022-11-28T19:41:13.882Z,59.20
2022-11-28T19:43:40.768Z,47.83
2022-11-28T19:46:08.425Z,54.03
2022-11-28T19:48:36.335Z,49.37
2022-11-28T19:51:03.882Z,51.27
2022-11-28T19:53:31.643Z,48.07
2022-11-28T19:56:05.888Z,53.40
2022-11-28T19:58:34.843Z,52.37
2022-11-28T20:01:35.896Z,63.10
2022-11-28T20:04:02.467Z,56.90
2022-11-28T20:06:31.540Z,47.07
2022-11-28T20:09:07.226Z,52.33
2022-11-28T20:11:35.202Z,49.63
2022-11-28T20:14:04.371Z,48.90
2022-11-28T20:16:31.507Z,57.80
2022-11-28T20:19:00.353Z,57.33
2022-11-28T20:21:28.172Z,43.53
2022-11-28T20:23:56.796Z,55.60
2022-11-28T20:26:26.755Z,49.73
2022-11-28T20:28:56.574Z,55.10
2022-11-28T20:31:30.657Z,52.90
2022-11-28T20:33:57.981Z,49.90
2022-11-28T20:36:25.970Z,49.23
2022-11-28T20:38:53.568Z,52.53
2022-11-28T20:41:21.465Z,56.93
2022-11-28T20:43:48.935Z,52.63
2022-11-28T20:46:21.143Z,53.90
2022-11-28T20:48:48.159Z,50.57
2022-11-28T20:51:25.630Z,59.97
2022-11-28T20:53:52.957Z,49.90
2022-11-28T20:56:24.938Z,52.33
2022-11-28T20:58:51.996Z,59.37
2022-11-28T21:01:23.645Z,52.50
2022-11-28T21:03:51.133Z,52.30
2022-11-28T21:06:18.003Z,51.93
2022-11-28T21:08:44.571Z,53.50
2022-11-28T21:11:36.553Z,49.13
2022-11-28T21:14:04.088Z,56.53
2022-11-28T21:16:32.010Z,52.03
2022-11-28T21:19:02.468Z,53.83
2022-11-28T21:21:30.569Z,58.77
2022-11-28T21:24:00.047Z,52.40
2022-11-28T21:26:30.422Z,54.80
2022-11-28T21:29:01.712Z,62.73
2022-11-28T21:31:30.755Z,50.27
2022-11-28T21:33:58.523Z,59.03
2022-11-28T21:36:26.363Z,62.60
2022-11-28T21:38:54.503Z,56.40
2022-11-28T21:41:21.604Z,67.73
2022-11-28T21:43:49.631Z,55.03
2022-11-28T21:46:16.547Z,54.03
2022-11-28T21:48:43.012Z,75.90
2022-11-28T21:51:16.287Z,63.33
2022-11-28T21:53:42.945Z,54.13
2022-11-28T21:56:11.635Z,67.07
2022-11-28T21:58:43.042Z,53.67
2022-11-28T22:01:13.613Z,54.87
2022-11-28T22:03:44.036Z,52.13
2022-11-28T22:06:19.153Z,68.50
2022-11-28T22:08:51.214Z,66.27
2022-11-28T22:14:03.394Z,54.47
2022-11-28T22:16:31.112Z,46.53
2022-11-28T22:19:00.031Z,68.33
2022-11-28T22:24:13.950Z,70.10
2022-11-28T22:26:40.928Z,73.37
2022-11-28T22:29:07.948Z,55.07
2022-11-28T22:31:35.054Z,61.63
2022-11-28T22:34:02.085Z,65.57
2022-11-28T22:36:31.377Z,61.17
2022-11-28T22:38:58.484Z,58.43
2022-11-28T22:41:29.755Z,57.20
2022-11-28T22:44:00.460Z,59.00
2022-11-28T22:46:33.166Z,60.10
2022-11-28T22:49:00.909Z,66.27
2022-11-28T22:51:28.533Z,52.20
2022-11-28T22:54:01.317Z,51.47
2022-11-28T22:56:29.128Z,54.43
2022-11-28T22:58:56.093Z,53.57
2022-11-28T23:01:34.493Z,51.03
2022-11-28T23:04:03.598Z,72.87
2022-11-28T23:06:32.868Z,56.43
2022-11-28T23:09:03.014Z,65.57
2022-11-28T23:11:33.477Z,57.90
2022-11-28T23:14:02.040Z,62.37
2022-11-28T23:16:35.035Z,53.70
2022-11-28T23:19:08.296Z,50.70
2022-11-28T23:21:40.047Z,58.80
2022-11-28T23:24:10.084Z,61.67
2022-11-28T23:26:37.814Z,52.47
2022-11-28T23:29:05.566Z,51.00
2022-11-28T23:31:35.228Z,54.33
2022-11-28T23:34:02.039Z,53.63
2022-11-28T23:36:33.797Z,63.83
2022-11-28T23:39:13.603Z,68.53
2022-11-28T23:41:41.122Z,58.57
2022-11-28T23:44:08.189Z,58.93
2022-11-28T23:46:36.424Z,68.20
2022-11-28T23:49:05.408Z,68.57
2022-11-28T23:51:32.747Z,60.70
2022-11-28T23:54:01.033Z,59.20
2022-11-28T23:56:30.270Z,57.93
2022-11-28T23:58:58.078Z,69.47
